createdAt,value
2017-02-05T00:00:05.717Z,0
2017-02-05T00:01:10.835Z,0
2017-02-05T00:02:16.930Z,0
2017-02-05T00:03:22.027Z,0
2017-02-05T00:04:28.119Z,0
2017-02-05T00:05:33.244Z,0
2017-02-05T00:06:39.355Z,0
2017-02-05T00:07:42.508Z,0
2017-02-05T00:08:48.602Z,0
2017-02-05T00:09:54.756Z,0
2017-02-05T00:10:59.892Z,0
2017-02-05T00:12:05.020Z,0
2017-02-05T00:13:11.112Z,0
2017-02-05T00:14:15.276Z,0
2017-02-05T00:15:21.351Z,0
2017-02-05T00:16:26.494Z,0
2017-02-05T00:17:31.610Z,0
2017-02-05T00:18:36.710Z,0
2017-02-05T00:19:42.799Z,0
2017-02-05T00:20:48.897Z,0
2017-02-05T00:21:54.990Z,0
2017-02-05T00:23:00.087Z,0
2017-02-05T00:24:05.217Z,0
2017-02-05T00:25:09.380Z,0
2017-02-05T00:26:15.514Z,0
2017-02-05T00:27:20.633Z,0
2017-02-05T00:28:25.751Z,0
2017-02-05T00:29:31.852Z,0
2017-02-05T00:30:36.979Z,0
2017-02-05T00:31:43.067Z,0
2017-02-05T00:32:48.178Z,0
2017-02-05T00:33:54.269Z,0
2017-02-05T00:35:00.371Z,0
2017-02-05T00:36:05.496Z,0
2017-02-05T00:37:11.598Z,0
2017-02-05T00:38:16.727Z,0
2017-02-05T00:39:22.823Z,0
2017-02-05T00:40:28.915Z,0
2017-02-05T00:41:34.008Z,0
2017-02-05T00:42:40.098Z,0
2017-02-05T00:43:45.206Z,0
2017-02-05T00:44:49.409Z,0
2017-02-05T00:45:55.508Z,0
2017-02-05T00:47:01.605Z,0
2017-02-05T00:48:07.694Z,0
2017-02-05T00:49:13.786Z,0
2017-02-05T00:50:19.899Z,0
2017-02-05T00:51:26.048Z,0
2017-02-05T00:52:32.082Z,0
2017-02-05T00:53:36.220Z,0
2017-02-05T00:54:42.322Z,0
2017-02-05T00:55:47.443Z,0
2017-02-05T00:56:51.599Z,0
2017-02-05T00:57:57.696Z,0
2017-02-05T00:59:03.798Z,0
2017-02-05T01:00:06.994Z,0
2017-02-05T01:01:12.089Z,0
2017-02-05T01:02:18.184Z,0
2017-02-05T01:03:23.306Z,0
2017-02-05T01:04:28.435Z,0
2017-02-05T01:05:34.529Z,0
2017-02-05T01:06:38.661Z,0
2017-02-05T01:07:43.818Z,0
2017-02-05T01:08:48.942Z,0
2017-02-05T01:09:53.095Z,0
2017-02-05T01:10:57.230Z,0
2017-02-05T01:12:03.325Z,0
2017-02-05T01:13:07.447Z,0
2017-02-05T01:14:12.577Z,0
2017-02-05T01:15:16.735Z,0
2017-02-05T01:16:20.887Z,0
2017-02-05T01:17:26.009Z,0
2017-02-05T01:18:30.170Z,0
2017-02-05T01:19:36.259Z,0
2017-02-05T01:20:42.351Z,0
2017-02-05T01:21:46.481Z,0
2017-02-05T01:22:51.600Z,0
2017-02-05T01:23:56.736Z,0
2017-02-05T01:25:02.833Z,0
2017-02-05T01:26:06.962Z,0
2017-02-05T01:27:13.056Z,0
2017-02-05T01:28:19.154Z,0
2017-02-05T01:29:24.270Z,0
2017-02-05T01:30:30.361Z,0
2017-02-05T01:31:34.522Z,0
2017-02-05T01:32:40.620Z,0
2017-02-05T01:33:45.752Z,0
2017-02-05T01:34:50.881Z,0
2017-02-05T01:35:57.021Z,0
2017-02-05T01:37:02.134Z,0
2017-02-05T01:38:08.295Z,0
2017-02-05T01:39:13.401Z,0
2017-02-05T01:40:17.523Z,0
2017-02-05T01:41:22.624Z,0
2017-02-05T01:42:27.720Z,0
2017-02-05T01:43:32.850Z,0
2017-02-05T01:44:37.982Z,0
2017-02-05T01:45:44.142Z,0
2017-02-05T01:46:49.266Z,0
2017-02-05T01:47:55.362Z,0
2017-02-05T01:48:59.526Z,0
2017-02-05T01:50:04.662Z,0
2017-02-05T01:51:09.799Z,0
2017-02-05T01:52:13.904Z,0
2017-02-05T01:53:19.045Z,0
2017-02-05T01:54:25.131Z,0
2017-02-05T01:55:30.236Z,0
2017-02-05T01:56:35.365Z,0
2017-02-05T01:57:40.490Z,0
2017-02-05T01:58:45.628Z,0
2017-02-05T01:59:49.784Z,0
2017-02-05T02:00:54.901Z,0
2017-02-05T02:02:00.989Z,0
2017-02-05T02:03:05.132Z,0
2017-02-05T02:04:10.257Z,0
2017-02-05T02:05:15.377Z,0
2017-02-05T02:06:21.469Z,0
2017-02-05T02:07:26.597Z,0
2017-02-05T02:08:31.727Z,0
2017-02-05T02:09:36.848Z,0
2017-02-05T02:10:41.967Z,0
2017-02-05T02:11:47.094Z,0
2017-02-05T02:12:53.193Z,0
2017-02-05T02:13:59.280Z,0
2017-02-05T02:15:04.404Z,0
2017-02-05T02:16:10.499Z,0
2017-02-05T02:17:15.602Z,0
2017-02-05T02:18:19.735Z,0
2017-02-05T02:19:25.827Z,0
2017-02-05T02:20:31.940Z,0
2017-02-05T02:21:38.032Z,0
2017-02-05T02:22:44.133Z,0
2017-02-05T02:23:48.286Z,0
2017-02-05T02:24:52.431Z,0
2017-02-05T02:25:58.525Z,0
2017-02-05T02:27:04.622Z,0
2017-02-05T02:28:10.710Z,0
2017-02-05T02:29:16.799Z,0
2017-02-05T02:30:21.926Z,0
2017-02-05T02:31:26.061Z,0
2017-02-05T02:32:30.214Z,0
2017-02-05T02:33:36.317Z,0
2017-02-05T02:34:42.418Z,0
2017-02-05T02:35:45.620Z,0
2017-02-05T02:36:51.717Z,0
2017-02-05T02:37:57.805Z,0
2017-02-05T02:39:02.934Z,0
2017-02-05T02:40:09.024Z,0
2017-02-05T02:41:15.122Z,0
2017-02-05T02:42:21.211Z,0
2017-02-05T02:43:26.307Z,0
2017-02-05T02:44:32.415Z,0
2017-02-05T02:45:37.517Z,0
2017-02-05T02:46:42.676Z,0
2017-02-05T02:47:47.809Z,0
2017-02-05T02:48:53.898Z,0
2017-02-05T02:49:59.025Z,0
2017-02-05T02:51:05.133Z,0
2017-02-05T02:52:11.228Z,0
2017-02-05T02:53:17.351Z,0
2017-02-05T02:54:23.429Z,0
2017-02-05T02:55:29.527Z,0
2017-02-05T02:56:33.655Z,0
2017-02-05T02:57:36.820Z,0
2017-02-05T02:58:39.040Z,0
2017-02-05T02:59:44.166Z,0
2017-02-05T03:00:50.263Z,0
2017-02-05T03:01:55.396Z,0
2017-02-05T03:03:01.485Z,0
2017-02-05T03:04:06.615Z,0
2017-02-05T03:05:11.751Z,0
2017-02-05T03:06:17.857Z,0
2017-02-05T03:07:22.963Z,0
2017-02-05T03:08:27.095Z,0
2017-02-05T03:09:33.195Z,0
2017-02-05T03:10:39.297Z,0
2017-02-05T03:11:44.393Z,0
2017-02-05T03:12:49.504Z,0
2017-02-05T03:13:55.614Z,0
2017-02-05T03:15:00.744Z,0
2017-02-05T03:16:06.833Z,0
2017-02-05T03:17:10.981Z,0
2017-02-05T03:18:17.071Z,0
2017-02-05T03:19:22.191Z,0
2017-02-05T03:20:27.341Z,0
2017-02-05T03:21:33.508Z,0
2017-02-05T03:22:37.635Z,0
2017-02-05T03:23:43.724Z,0
2017-02-05T03:24:47.864Z,0
2017-02-05T03:25:53.997Z,0
2017-02-05T03:27:00.067Z,0
2017-02-05T03:28:05.190Z,0
2017-02-05T03:29:10.291Z,0
2017-02-05T03:30:16.430Z,0
2017-02-05T03:31:21.561Z,0
2017-02-05T03:32:27.650Z,0
2017-02-05T03:33:33.748Z,0
2017-02-05T03:34:39.837Z,0
2017-02-05T03:35:43.964Z,0
2017-02-05T03:36:49.092Z,0
2017-02-05T03:37:55.187Z,0
2017-02-05T03:39:00.373Z,0
2017-02-05T03:40:03.530Z,0
2017-02-05T03:41:09.638Z,0
2017-02-05T03:42:15.724Z,0
2017-02-05T03:43:19.861Z,0
2017-02-05T03:44:24.982Z,0
2017-02-05T03:45:30.108Z,0
2017-02-05T03:46:35.230Z,0
2017-02-05T03:47:41.328Z,0
2017-02-05T03:48:44.486Z,0
2017-02-05T03:49:48.642Z,0
2017-02-05T03:50:53.764Z,0
2017-02-05T03:51:59.863Z,0
2017-02-05T03:53:05.969Z,0
2017-02-05T03:54:12.065Z,0
2017-02-05T03:55:16.189Z,0
2017-02-05T03:56:20.347Z,0
2017-02-05T03:57:25.478Z,0
2017-02-05T03:58:31.578Z,0
2017-02-05T03:59:37.674Z,0
2017-02-05T04:00:42.796Z,0
2017-02-05T04:01:47.916Z,0
2017-02-05T04:02:52.071Z,0
2017-02-05T04:03:56.206Z,0
2017-02-05T04:05:02.323Z,0
2017-02-05T04:06:08.389Z,0
2017-02-05T04:07:14.493Z,0
2017-02-05T04:08:20.580Z,0
2017-02-05T04:09:25.678Z,0
2017-02-05T04:10:31.804Z,0
2017-02-05T04:11:35.934Z,0
2017-02-05T04:12:42.024Z,0
2017-02-05T04:13:46.187Z,0
2017-02-05T04:14:51.304Z,0
2017-02-05T04:15:56.458Z,0
2017-02-05T04:17:02.519Z,0
2017-02-05T04:18:04.741Z,0
2017-02-05T04:19:07.899Z,0
2017-02-05T04:20:13.989Z,0
2017-02-05T04:21:19.083Z,0
2017-02-05T04:22:23.222Z,0
2017-02-05T04:23:27.389Z,0
2017-02-05T04:24:30.573Z,0
2017-02-05T04:25:36.663Z,0
2017-02-05T04:26:42.764Z,0
2017-02-05T04:27:47.885Z,0
2017-02-05T04:28:52.056Z,0
2017-02-05T04:29:57.179Z,0
2017-02-05T04:31:02.364Z,0
2017-02-05T04:32:07.492Z,0
2017-02-05T04:33:11.634Z,0
2017-02-05T04:34:16.748Z,0
2017-02-05T04:35:20.896Z,0
2017-02-05T04:36:25.987Z,0
2017-02-05T04:37:32.088Z,0
2017-02-05T04:38:38.186Z,0
2017-02-05T04:39:43.303Z,0
2017-02-05T04:40:49.395Z,0
2017-02-05T04:41:55.492Z,0
2017-02-05T04:43:00.618Z,0
2017-02-05T04:44:05.737Z,0
2017-02-05T04:45:10.840Z,0
2017-02-05T04:46:16.939Z,0
2017-02-05T04:47:23.033Z,0
2017-02-05T04:48:28.178Z,0
2017-02-05T04:49:34.256Z,0
2017-02-05T04:50:38.410Z,0
2017-02-05T04:51:44.491Z,0
2017-02-05T04:52:48.646Z,0
2017-02-05T04:53:52.800Z,0
2017-02-05T04:54:58.903Z,0
2017-02-05T04:56:04.987Z,0
2017-02-05T04:57:11.083Z,0
2017-02-05T04:58:16.209Z,0
2017-02-05T04:59:22.352Z,0
2017-02-05T05:00:28.434Z,0
2017-02-05T05:01:33.543Z,0
2017-02-05T05:02:39.693Z,0
2017-02-05T05:03:45.785Z,0
2017-02-05T05:04:50.888Z,0
2017-02-05T05:05:56.985Z,0
2017-02-05T05:07:03.081Z,0
2017-02-05T05:08:08.225Z,0
2017-02-05T05:09:13.342Z,0
2017-02-05T05:10:19.433Z,0
2017-02-05T05:11:24.556Z,0
2017-02-05T05:12:29.717Z,0
2017-02-05T05:13:34.817Z,0
2017-02-05T05:14:39.943Z,0
2017-02-05T05:15:45.081Z,0
2017-02-05T05:16:51.172Z,0
2017-02-05T05:17:56.263Z,0
2017-02-05T05:19:02.376Z,0
2017-02-05T05:20:08.437Z,0
2017-02-05T05:21:14.548Z,0
2017-02-05T05:22:19.680Z,0
2017-02-05T05:23:24.809Z,0
2017-02-05T05:24:30.905Z,0
2017-02-05T05:25:37.043Z,0
2017-02-05T05:26:43.136Z,0
2017-02-05T05:27:47.260Z,0
2017-02-05T05:28:53.367Z,0
2017-02-05T05:29:58.482Z,0
2017-02-05T05:31:03.606Z,0
2017-02-05T05:32:07.768Z,0
2017-02-05T05:33:13.870Z,0
2017-02-05T05:34:19.001Z,0
2017-02-05T05:35:25.099Z,0
2017-02-05T05:36:30.226Z,0
2017-02-05T05:37:35.383Z,0
2017-02-05T05:38:41.471Z,0
2017-02-05T05:39:45.600Z,0
2017-02-05T05:40:51.692Z,0
2017-02-05T05:41:57.778Z,0
2017-02-05T05:43:02.884Z,0
2017-02-05T05:44:08.987Z,0
2017-02-05T05:45:14.114Z,0
2017-02-05T05:46:19.237Z,0
2017-02-05T05:47:25.352Z,0
2017-02-05T05:48:31.465Z,0
2017-02-05T05:49:36.563Z,0
2017-02-05T05:50:42.665Z,0
2017-02-05T05:51:47.815Z,0
2017-02-05T05:52:52.921Z,0
2017-02-05T05:53:59.010Z,0
2017-02-05T05:55:05.103Z,0
2017-02-05T05:56:09.262Z,0
2017-02-05T05:57:14.381Z,0
2017-02-05T05:58:20.471Z,0
2017-02-05T05:59:26.571Z,0
2017-02-05T06:00:32.679Z,0
2017-02-05T06:01:38.752Z,0
2017-02-05T06:02:43.876Z,0
2017-02-05T06:03:48.996Z,0
2017-02-05T06:04:55.088Z,0
2017-02-05T06:05:58.250Z,0
2017-02-05T06:07:03.367Z,0
2017-02-05T06:08:07.531Z,0
2017-02-05T06:09:13.635Z,0
2017-02-05T06:10:18.753Z,0
2017-02-05T06:11:23.923Z,0
2017-02-05T06:12:30.004Z,0
2017-02-05T06:13:36.110Z,0
2017-02-05T06:14:41.245Z,0
2017-02-05T06:15:47.345Z,0
2017-02-05T06:16:50.498Z,0
2017-02-05T06:17:55.623Z,0
2017-02-05T06:18:59.786Z,0
2017-02-05T06:20:02.947Z,0
2017-02-05T06:21:08.073Z,0
2017-02-05T06:22:13.205Z,0
2017-02-05T06:23:19.295Z,0
2017-02-05T06:24:25.402Z,0
2017-02-05T06:25:30.527Z,0
2017-02-05T06:26:36.624Z,0
2017-02-05T06:27:40.773Z,0
2017-02-05T06:28:46.876Z,0
2017-02-05T06:29:50.036Z,0
2017-02-05T06:30:54.166Z,0
2017-02-05T06:31:57.358Z,0
2017-02-05T06:33:01.487Z,0
2017-02-05T06:34:07.584Z,0
2017-02-05T06:35:12.715Z,0
2017-02-05T06:36:18.811Z,0
2017-02-05T06:37:22.932Z,0
2017-02-05T06:38:29.047Z,0
2017-02-05T06:39:35.149Z,0
2017-02-05T06:40:41.239Z,0
2017-02-05T06:41:46.417Z,0
2017-02-05T06:42:50.578Z,0
2017-02-05T06:43:55.715Z,0
2017-02-05T06:45:00.824Z,0
2017-02-05T06:46:04.982Z,0
2017-02-05T06:47:10.128Z,0
2017-02-05T06:48:14.242Z,0
2017-02-05T06:49:19.367Z,0
2017-02-05T06:50:25.474Z,0
2017-02-05T06:51:29.668Z,0
2017-02-05T06:52:35.849Z,0
2017-02-05T06:53:41.937Z,0
2017-02-05T06:54:47.039Z,0
2017-02-05T06:55:53.144Z,0
2017-02-05T06:56:58.249Z,0
2017-02-05T06:58:04.350Z,0
2017-02-05T06:59:09.583Z,0
2017-02-05T07:00:14.688Z,0
2017-02-05T07:01:20.775Z,0
2017-02-05T07:02:24.909Z,0
2017-02-05T07:03:31.002Z,0
2017-02-05T07:04:37.100Z,0
2017-02-05T07:05:42.206Z,0
2017-02-05T07:06:48.307Z,0
2017-02-05T07:07:52.513Z,0
2017-02-05T07:08:57.620Z,0
2017-02-05T07:10:03.715Z,5
2017-02-05T07:11:09.806Z,5
2017-02-05T07:12:15.902Z,5
2017-02-05T07:13:20.069Z,5
2017-02-05T07:14:25.219Z,5
2017-02-05T07:15:31.304Z,5
2017-02-05T07:16:36.424Z,5
2017-02-05T07:17:41.543Z,5
2017-02-05T07:18:46.647Z,5
2017-02-05T07:19:52.749Z,5
2017-02-05T07:20:58.836Z,5
2017-02-05T07:22:03.971Z,5
2017-02-05T07:23:10.083Z,5
2017-02-05T07:24:16.154Z,5
2017-02-05T07:25:21.297Z,5
2017-02-05T07:26:27.393Z,5
2017-02-05T07:27:32.492Z,5
2017-02-05T07:28:36.642Z,5
2017-02-05T07:29:42.738Z,5
2017-02-05T07:30:46.871Z,5
2017-02-05T07:31:52.023Z,5
2017-02-05T07:32:58.125Z,5
2017-02-05T07:34:00.345Z,5
2017-02-05T07:35:06.439Z,5
2017-02-05T07:36:12.537Z,5
2017-02-05T07:37:18.642Z,10
2017-02-05T07:38:24.733Z,10
2017-02-05T07:39:29.880Z,10
2017-02-05T07:40:35.966Z,10
2017-02-05T07:41:41.095Z,10
2017-02-05T07:42:47.196Z,15
2017-02-05T07:43:52.323Z,15
2017-02-05T07:44:58.416Z,15
2017-02-05T07:46:03.557Z,20
2017-02-05T07:47:09.645Z,20
2017-02-05T07:48:15.744Z,20
2017-02-05T07:49:20.834Z,20
2017-02-05T07:50:25.965Z,25
2017-02-05T07:51:32.088Z,25
2017-02-05T07:52:38.163Z,25
2017-02-05T07:53:42.293Z,25
2017-02-05T07:54:47.468Z,25
2017-02-05T07:55:53.558Z,25
2017-02-05T07:56:58.650Z,25
2017-02-05T07:58:03.774Z,30
2017-02-05T07:59:07.935Z,30
2017-02-05T08:00:13.067Z,30
2017-02-05T08:01:19.154Z,30
2017-02-05T08:02:25.263Z,35
2017-02-05T08:03:31.362Z,35
2017-02-05T08:04:36.494Z,40
2017-02-05T08:05:41.617Z,40
2017-02-05T08:06:46.740Z,40
2017-02-05T08:07:51.864Z,40
2017-02-05T08:08:57.962Z,45
2017-02-05T08:10:04.057Z,45
2017-02-05T08:11:09.155Z,40
2017-02-05T08:12:14.245Z,40
2017-02-05T08:13:20.348Z,45
2017-02-05T08:14:26.454Z,45
2017-02-05T08:15:30.603Z,50
2017-02-05T08:16:35.720Z,50
2017-02-05T08:17:40.821Z,50
2017-02-05T08:18:46.004Z,50
2017-02-05T08:19:51.130Z,50
2017-02-05T08:20:56.260Z,50
2017-02-05T08:22:01.370Z,55
2017-02-05T08:23:06.476Z,50
2017-02-05T08:24:12.573Z,50
2017-02-05T08:25:17.706Z,50
2017-02-05T08:26:22.815Z,50
2017-02-05T08:27:28.925Z,50
2017-02-05T08:28:34.056Z,50
2017-02-05T08:29:39.174Z,50
2017-02-05T08:30:45.274Z,50
2017-02-05T08:31:50.403Z,50
2017-02-05T08:32:56.501Z,50
2017-02-05T08:34:02.593Z,50
2017-02-05T08:35:08.701Z,55
2017-02-05T08:36:11.887Z,55
2017-02-05T08:37:17.013Z,60
2017-02-05T08:38:23.127Z,65
2017-02-05T08:39:27.272Z,65
2017-02-05T08:40:32.400Z,70
2017-02-05T08:41:38.492Z,75
2017-02-05T08:42:44.592Z,75
2017-02-05T08:43:49.748Z,70
2017-02-05T08:44:54.869Z,75
2017-02-05T08:46:00.141Z,75
2017-02-05T08:47:04.191Z,80
2017-02-05T08:48:09.297Z,85
2017-02-05T08:49:14.425Z,90
2017-02-05T08:50:19.555Z,85
2017-02-05T08:51:24.693Z,85
2017-02-05T08:52:30.801Z,85
2017-02-05T08:53:35.900Z,90
2017-02-05T08:54:42.013Z,90
2017-02-05T08:55:46.173Z,85
2017-02-05T08:56:51.297Z,80
2017-02-05T08:57:55.462Z,80
2017-02-05T08:59:00.614Z,80
2017-02-05T09:00:06.678Z,75
2017-02-05T09:01:11.919Z,70
2017-02-05T09:02:17.052Z,70
2017-02-05T09:03:22.174Z,75
2017-02-05T09:04:28.270Z,75
2017-02-05T09:05:31.423Z,80
2017-02-05T09:06:36.552Z,80
2017-02-05T09:07:41.668Z,85
2017-02-05T09:08:46.798Z,90
2017-02-05T09:09:52.897Z,95
2017-02-05T09:10:58.015Z,100
2017-02-05T09:12:02.144Z,100
2017-02-05T09:13:07.269Z,105
2017-02-05T09:14:12.395Z,110
2017-02-05T09:15:18.510Z,110
2017-02-05T09:16:24.601Z,105
2017-02-05T09:17:27.766Z,100
2017-02-05T09:18:32.903Z,95
2017-02-05T09:19:37.063Z,90
2017-02-05T09:20:42.189Z,90
2017-02-05T09:21:47.321Z,85
2017-02-05T09:22:52.417Z,80
2017-02-05T09:23:56.558Z,70
2017-02-05T09:25:02.660Z,75
2017-02-05T09:26:08.751Z,80
2017-02-05T09:27:14.854Z,80
2017-02-05T09:28:20.945Z,85
2017-02-05T09:29:24.135Z,90
2017-02-05T09:30:29.273Z,105
2017-02-05T09:31:35.374Z,115
2017-02-05T09:32:41.479Z,120
2017-02-05T09:33:46.620Z,120
2017-02-05T09:34:52.737Z,120
2017-02-05T09:35:58.849Z,125
2017-02-05T09:37:03.965Z,130
2017-02-05T09:38:10.045Z,135
2017-02-05T09:39:16.133Z,150
2017-02-05T09:40:20.295Z,165
2017-02-05T09:41:26.402Z,175
2017-02-05T09:42:32.493Z,180
2017-02-05T09:43:38.583Z,185
2017-02-05T09:44:44.674Z,190
2017-02-05T09:45:48.829Z,185
2017-02-05T09:46:53.937Z,185
2017-02-05T09:47:59.069Z,175
2017-02-05T09:49:04.202Z,190
2017-02-05T09:50:09.326Z,195
2017-02-05T09:51:15.432Z,210
2017-02-05T09:52:21.518Z,235
2017-02-05T09:53:26.642Z,245
2017-02-05T09:54:31.769Z,250
2017-02-05T09:55:36.888Z,255
2017-02-05T09:56:42.987Z,260
2017-02-05T09:57:48.076Z,260
2017-02-05T09:58:53.197Z,255
2017-02-05T09:59:57.364Z,255
2017-02-05T10:01:03.469Z,265
2017-02-05T10:02:08.613Z,280
2017-02-05T10:03:13.721Z,295
2017-02-05T10:04:17.886Z,305
2017-02-05T10:05:24.040Z,320
2017-02-05T10:06:30.083Z,345
2017-02-05T10:07:35.209Z,355
2017-02-05T10:08:41.307Z,355
2017-02-05T10:09:46.407Z,345
2017-02-05T10:10:50.570Z,330
2017-02-05T10:11:55.676Z,325
2017-02-05T10:13:00.808Z,300
2017-02-05T10:14:06.912Z,275
2017-02-05T10:15:12.999Z,260
2017-02-05T10:16:17.143Z,255
2017-02-05T10:17:23.229Z,245
2017-02-05T10:18:27.395Z,245
2017-02-05T10:19:31.557Z,255
2017-02-05T10:20:37.657Z,265
2017-02-05T10:21:43.754Z,270
2017-02-05T10:22:48.886Z,265
2017-02-05T10:23:54.037Z,255
2017-02-05T10:24:59.131Z,250
2017-02-05T10:26:04.253Z,245
2017-02-05T10:27:08.411Z,240
2017-02-05T10:28:13.540Z,235
2017-02-05T10:29:18.680Z,250
2017-02-05T10:30:24.778Z,260
2017-02-05T10:31:29.947Z,275
2017-02-05T10:32:35.041Z,275
2017-02-05T10:33:41.156Z,280
2017-02-05T10:34:47.253Z,285
2017-02-05T10:35:51.449Z,295
2017-02-05T10:36:57.555Z,290
2017-02-05T10:38:01.821Z,300
2017-02-05T10:39:06.932Z,305
2017-02-05T10:40:13.029Z,335
2017-02-05T10:41:18.154Z,320
2017-02-05T10:42:24.249Z,305
2017-02-05T10:43:29.392Z,300
2017-02-05T10:44:34.527Z,310
2017-02-05T10:45:40.625Z,305
2017-02-05T10:46:46.739Z,300
2017-02-05T10:47:51.864Z,290
2017-02-05T10:48:56.991Z,300
2017-02-05T10:50:00.208Z,300
2017-02-05T10:51:06.316Z,285
2017-02-05T10:52:10.492Z,275
2017-02-05T10:53:15.609Z,295
2017-02-05T10:54:20.725Z,310
2017-02-05T10:55:26.813Z,315
2017-02-05T10:56:32.946Z,290
2017-02-05T10:57:38.068Z,280
2017-02-05T10:58:43.177Z,285
2017-02-05T10:59:49.272Z,290
2017-02-05T11:00:55.387Z,315
2017-02-05T11:01:59.550Z,335
2017-02-05T11:03:04.699Z,365
2017-02-05T11:04:10.802Z,365
2017-02-05T11:05:16.912Z,370
2017-02-05T11:06:22.070Z,365
2017-02-05T11:07:27.202Z,355
2017-02-05T11:08:32.331Z,345
2017-02-05T11:09:37.457Z,355
2017-02-05T11:10:43.566Z,365
2017-02-05T11:11:49.665Z,400
2017-02-05T11:12:55.782Z,425
2017-02-05T11:14:01.892Z,430
2017-02-05T11:15:07.052Z,405
2017-02-05T11:16:11.162Z,375
2017-02-05T11:17:17.271Z,395
2017-02-05T11:18:23.367Z,450
2017-02-05T11:19:28.497Z,485
2017-02-05T11:20:33.605Z,480
2017-02-05T11:21:37.788Z,490
2017-02-05T11:22:40.024Z,485
2017-02-05T11:23:46.119Z,470
2017-02-05T11:24:52.226Z,445
2017-02-05T11:25:57.360Z,400
2017-02-05T11:27:03.481Z,425
2017-02-05T11:28:09.570Z,470
2017-02-05T11:29:13.714Z,485
2017-02-05T11:30:18.894Z,450
2017-02-05T11:31:23.995Z,405
2017-02-05T11:32:28.137Z,365
2017-02-05T11:33:34.246Z,355
2017-02-05T11:34:37.434Z,360
2017-02-05T11:35:42.569Z,370
2017-02-05T11:36:48.674Z,380
2017-02-05T11:37:53.783Z,385
2017-02-05T11:38:58.922Z,395
2017-02-05T11:40:04.049Z,370
2017-02-05T11:41:10.150Z,355
2017-02-05T11:42:16.258Z,330
2017-02-05T11:43:21.391Z,295
2017-02-05T11:44:26.519Z,275
2017-02-05T11:45:30.665Z,265
2017-02-05T11:46:36.756Z,250
2017-02-05T11:47:41.905Z,245
2017-02-05T11:48:47.981Z,255
2017-02-05T11:49:53.115Z,250
2017-02-05T11:50:58.242Z,240
2017-02-05T11:52:03.381Z,280
2017-02-05T11:53:07.525Z,290
2017-02-05T11:54:12.621Z,285
2017-02-05T11:55:18.728Z,295
2017-02-05T11:56:23.867Z,315
2017-02-05T11:57:29.003Z,315
2017-02-05T11:58:34.154Z,305
2017-02-05T11:59:40.243Z,305
2017-02-05T12:00:45.373Z,255
2017-02-05T12:01:51.471Z,250
2017-02-05T12:02:57.574Z,220
2017-02-05T12:04:01.749Z,245
2017-02-05T12:05:07.877Z,260
2017-02-05T12:06:13.973Z,270
2017-02-05T12:07:20.083Z,270
2017-02-05T12:08:26.178Z,280
2017-02-05T12:09:30.314Z,270
2017-02-05T12:10:35.444Z,270
2017-02-05T12:11:41.543Z,325
2017-02-05T12:12:46.673Z,345
2017-02-05T12:13:51.784Z,370
2017-02-05T12:14:56.986Z,380
2017-02-05T12:16:03.091Z,390
2017-02-05T12:17:07.255Z,380
2017-02-05T12:18:12.392Z,385
2017-02-05T12:19:18.491Z,400
2017-02-05T12:20:24.588Z,415
2017-02-05T12:21:30.683Z,420
2017-02-05T12:22:36.795Z,415
2017-02-05T12:23:40.957Z,400
2017-02-05T12:24:47.047Z,370
2017-02-05T12:25:51.182Z,375
2017-02-05T12:26:55.343Z,340
2017-02-05T12:28:01.445Z,290
2017-02-05T12:29:06.583Z,265
2017-02-05T12:30:12.673Z,265
2017-02-05T12:31:16.812Z,270
2017-02-05T12:32:21.939Z,290
2017-02-05T12:33:27.051Z,305
2017-02-05T12:34:33.151Z,315
2017-02-05T12:35:37.278Z,315
2017-02-05T12:36:42.408Z,310
2017-02-05T12:37:47.543Z,300
2017-02-05T12:38:51.687Z,310
2017-02-05T12:39:57.780Z,290
2017-02-05T12:41:02.918Z,300
2017-02-05T12:42:09.019Z,295
2017-02-05T12:43:15.134Z,275
2017-02-05T12:44:18.336Z,300
2017-02-05T12:45:24.474Z,285
2017-02-05T12:46:30.595Z,265
2017-02-05T12:47:36.647Z,260
2017-02-05T12:48:41.753Z,260
2017-02-05T12:49:46.898Z,260
2017-02-05T12:50:53.050Z,275
2017-02-05T12:51:58.145Z,290
2017-02-05T12:53:03.264Z,295
2017-02-05T12:54:07.435Z,290
2017-02-05T12:55:12.616Z,280
2017-02-05T12:56:18.694Z,270
2017-02-05T12:57:22.910Z,265
2017-02-05T12:58:27.070Z,270
2017-02-05T12:59:32.205Z,280
2017-02-05T13:00:38.326Z,295
2017-02-05T13:01:44.418Z,290
2017-02-05T13:02:50.542Z,285
2017-02-05T13:03:55.813Z,280
2017-02-05T13:04:59.980Z,275
2017-02-05T13:06:06.084Z,260
2017-02-05T13:07:12.179Z,255
2017-02-05T13:08:18.281Z,265
2017-02-05T13:09:24.380Z,265
2017-02-05T13:10:30.477Z,270
2017-02-05T13:11:34.610Z,270
2017-02-05T13:12:40.703Z,270
2017-02-05T13:13:45.817Z,280
2017-02-05T13:14:49.956Z,285
2017-02-05T13:15:54.125Z,290
2017-02-05T13:17:00.216Z,295
2017-02-05T13:18:06.332Z,290
2017-02-05T13:19:11.429Z,270
2017-02-05T13:20:16.612Z,255
2017-02-05T13:21:22.717Z,245
2017-02-05T13:22:28.819Z,240
2017-02-05T13:23:33.074Z,240
2017-02-05T13:24:39.139Z,240
2017-02-05T13:25:44.265Z,240
2017-02-05T13:26:50.369Z,240
2017-02-05T13:27:56.489Z,240
2017-02-05T13:29:02.684Z,230
2017-02-05T13:30:07.823Z,235
2017-02-05T13:31:13.921Z,245
2017-02-05T13:32:18.063Z,240
2017-02-05T13:33:24.167Z,240
2017-02-05T13:34:29.299Z,235
2017-02-05T13:35:34.404Z,230
2017-02-05T13:36:39.508Z,225
2017-02-05T13:37:44.618Z,220
2017-02-05T13:38:50.713Z,225
2017-02-05T13:39:55.825Z,225
2017-02-05T13:41:01.007Z,225
2017-02-05T13:42:06.113Z,225
2017-02-05T13:43:12.219Z,220
2017-02-05T13:44:17.349Z,215
2017-02-05T13:45:22.460Z,215
2017-02-05T13:46:28.556Z,200
2017-02-05T13:47:33.689Z,190
2017-02-05T13:48:38.814Z,185
2017-02-05T13:49:43.946Z,180
2017-02-05T13:50:48.072Z,175
2017-02-05T13:51:53.205Z,175
2017-02-05T13:52:57.367Z,175
2017-02-05T13:54:03.492Z,170
2017-02-05T13:55:09.550Z,175
2017-02-05T13:56:14.682Z,180
2017-02-05T13:57:18.842Z,180
2017-02-05T13:58:22.981Z,175
2017-02-05T13:59:29.084Z,175
2017-02-05T14:00:35.186Z,180
2017-02-05T14:01:39.321Z,180
2017-02-05T14:02:45.412Z,175
2017-02-05T14:03:50.545Z,175
2017-02-05T14:04:56.649Z,175
2017-02-05T14:06:01.784Z,175
2017-02-05T14:07:06.900Z,175
2017-02-05T14:08:12.011Z,175
2017-02-05T14:09:17.123Z,175
2017-02-05T14:10:22.218Z,165
2017-02-05T14:11:26.385Z,160
2017-02-05T14:12:30.537Z,160
2017-02-05T14:13:36.634Z,155
2017-02-05T14:14:41.765Z,155
2017-02-05T14:15:47.873Z,150
2017-02-05T14:16:53.004Z,145
2017-02-05T14:17:58.124Z,145
2017-02-05T14:19:04.218Z,145
2017-02-05T14:20:07.376Z,145
2017-02-05T14:21:13.460Z,145
2017-02-05T14:22:19.565Z,145
2017-02-05T14:23:23.701Z,145
2017-02-05T14:24:29.795Z,145
2017-02-05T14:25:34.887Z,140
2017-02-05T14:26:40.994Z,140
2017-02-05T14:27:47.108Z,140
2017-02-05T14:28:52.294Z,135
2017-02-05T14:29:57.419Z,130
2017-02-05T14:31:03.529Z,130
2017-02-05T14:32:08.630Z,130
2017-02-05T14:33:14.736Z,125
2017-02-05T14:34:19.864Z,125
2017-02-05T14:35:24.967Z,125
2017-02-05T14:36:31.056Z,125
2017-02-05T14:37:37.155Z,120
2017-02-05T14:38:43.254Z,120
2017-02-05T14:39:49.345Z,120
2017-02-05T14:40:51.565Z,120
2017-02-05T14:41:56.743Z,115
2017-02-05T14:43:01.873Z,115
2017-02-05T14:44:06.996Z,115
2017-02-05T14:45:12.116Z,115
2017-02-05T14:46:17.242Z,120
2017-02-05T14:47:23.340Z,120
2017-02-05T14:48:27.503Z,120
2017-02-05T14:49:33.606Z,120
2017-02-05T14:50:37.763Z,120
2017-02-05T14:52:47.068Z,120
2017-02-05T14:53:52.199Z,120
2017-02-05T14:54:58.297Z,115
2017-02-05T14:56:03.419Z,115
2017-02-05T14:57:09.517Z,110
2017-02-05T14:58:14.648Z,110
2017-02-05T14:59:19.896Z,110
2017-02-05T15:00:25.991Z,110
2017-02-05T15:01:31.094Z,110
2017-02-05T15:02:37.196Z,115
2017-02-05T15:03:42.325Z,110
2017-02-05T15:04:48.419Z,105
2017-02-05T15:05:54.521Z,105
2017-02-05T15:06:59.660Z,100
2017-02-05T15:08:04.770Z,100
2017-02-05T15:09:10.867Z,100
2017-02-05T15:10:16.008Z,105
2017-02-05T15:11:21.109Z,105
2017-02-05T15:12:27.204Z,105
2017-02-05T15:13:32.391Z,100
2017-02-05T15:14:37.523Z,100
2017-02-05T15:15:42.647Z,95
2017-02-05T15:16:48.744Z,95
2017-02-05T15:17:53.862Z,95
2017-02-05T15:18:58.990Z,95
2017-02-05T15:20:05.082Z,90
2017-02-05T15:21:11.178Z,90
2017-02-05T15:22:15.310Z,85
2017-02-05T15:23:20.443Z,85
2017-02-05T15:24:26.532Z,80
2017-02-05T15:25:30.660Z,80
2017-02-05T15:26:35.783Z,80
2017-02-05T15:27:41.884Z,75
2017-02-05T15:28:47.025Z,75
2017-02-05T15:29:52.146Z,75
2017-02-05T15:30:58.267Z,75
2017-02-05T15:32:03.365Z,70
2017-02-05T15:33:04.594Z,70
2017-02-05T15:34:09.725Z,70
2017-02-05T15:35:14.856Z,70
2017-02-05T15:36:20.957Z,65